Time;durP1;ratioP1;P1;durP2;ratioP2;P2;SDS_P1;SDS_P2;PMS_P1;PMS_P2;Temp;Humidity;BMP_temperature;BMP_pressure;BME280_temperature;BME280_humidity;BME280_pressure;Samples;Min_cycle;Max_cycle;Signal;HPM_P1;HPM_P2
2021/11/25 00:01:36;;;;;;;6.17;3.65;;;;;;;7.19;80.79;101253.35;1757782;81;21697;-73
2021/11/25 00:04:03;;;;;;;4.70;3.72;;;;;;;7.18;80.81;101248.92;1757787;80;21528;-73
2021/11/25 00:06:30;;;;;;;4.97;3.92;;;;;;;7.15;80.82;101249.69;1757841;81;21062;-73
2021/11/25 00:08:57;;;;;;;6.40;4.12;;;;;;;7.16;80.92;101244.03;1757950;81;21719;-73
2021/11/25 00:11:27;;;;;;;6.40;3.75;;;;;;;7.15;80.95;101239.22;1757992;81;21018;-74
2021/11/25 00:13:54;;;;;;;5.92;4.25;;;;;;;7.14;80.93;101241.34;1758041;81;22668;-73
2021/11/25 00:16:21;;;;;;;6.40;4.80;;;;;;;7.13;80.97;101234.33;1758332;81;21105;-73
2021/11/25 00:18:47;;;;;;;5.37;4.12;;;;;;;7.15;81.08;101233.98;1758127;81;21313;-73
2021/11/25 00:21:17;;;;;;;5.08;3.85;;;;;;;7.14;81.10;101229.55;1757957;81;21113;-73
2021/11/25 00:23:46;;;;;;;4.60;3.77;;;;;;;7.16;81.13;101234.88;1738358;80;21077;-73
2021/11/25 00:26:12;;;;;;;6.17;3.92;;;;;;;7.17;81.11;101244.50;1758304;81;21775;-73
2021/11/25 00:28:39;;;;;;;6.58;4.45;;;;;;;7.15;81.11;101231.37;1758276;80;20996;-73
2021/11/25 00:31:06;;;;;;;6.95;4.00;;;;;;;7.14;81.17;101235.22;1758630;81;21569;-73
2021/11/25 00:33:33;;;;;;;6.30;3.85;;;;;;;7.15;81.28;101231.37;1758363;81;21588;-73
2021/11/25 00:35:59;;;;;;;5.83;4.03;;;;;;;7.14;81.20;101228.67;1758333;81;21587;-73
2021/11/25 00:38:27;;;;;;;5.05;3.50;;;;;;;7.14;81.19;101224.74;1760088;79;21751;-74
2021/11/25 00:40:54;;;;;;;7.10;3.77;;;;;;;7.12;81.10;101225.09;1763839;80;21602;-74
2021/11/25 00:43:21;;;;;;;3.98;3.25;;;;;;;7.11;81.12;101223.28;1763996;81;21367;-73
2021/11/25 00:45:49;;;;;;;6.72;3.17;;;;;;;7.13;81.16;101228.17;1763870;81;21069;-73
2021/11/25 00:48:15;;;;;;;4.95;3.60;;;;;;;7.11;81.07;101220.23;1763802;80;21051;-73
2021/11/25 00:50:42;;;;;;;4.70;3.25;;;;;;;7.10;81.01;101227.63;1763895;80;21759;-73
2021/11/25 00:53:13;;;;;;;3.67;3.20;;;;;;;7.08;81.04;101225.77;1763829;80;21121;-73
2021/11/25 00:55:39;;;;;;;3.75;2.77;;;;;;;7.06;81.03;101228.70;1764006;81;21109;-73
2021/11/25 00:58:09;;;;;;;4.12;3.58;;;;;;;7.04;81.02;101220.81;1763692;81;21519;-73
2021/11/25 01:00:37;;;;;;;4.40;3.35;;;;;;;7.03;80.97;101220.31;1763913;80;21053;-73
2021/11/25 01:03:04;;;;;;;5.58;3.50;;;;;;;7.01;80.98;101212.80;1763859;81;21823;-73
2021/11/25 01:05:31;;;;;;;6.37;3.62;;;;;;;7.01;80.98;101212.80;1763689;80;21659;-73
2021/11/25 01:08:01;;;;;;;3.35;2.87;;;;;;;6.99;81.01;101202.67;1763945;80;21543;-73
2021/11/25 01:10:28;;;;;;;3.27;2.92;;;;;;;6.99;80.98;101211.41;1764004;81;21086;-73
2021/11/25 01:12:56;;;;;;;4.85;3.08;;;;;;;7.00;80.96;101197.91;1763362;80;21108;-74
2021/11/25 01:15:32;;;;;;;5.15;3.47;;;;;;;7.03;80.96;101199.37;1748433;81;21179;-73
2021/11/25 01:18:06;;;;;;;6.50;3.17;;;;;;;7.03;80.87;101200.67;1763733;79;21058;-73
2021/11/25 01:20:33;;;;;;;4.03;2.92;;;;;;;7.03;80.82;101199.79;1763800;81;21007;-73
2021/11/25 01:23:01;;;;;;;4.00;3.45;;;;;;;7.01;80.75;101196.67;1763921;79;21062;-73
2021/11/25 01:25:28;;;;;;;3.87;2.72;;;;;;;7.01;80.67;101193.17;1764118;80;21574;-75
2021/11/25 01:27:58;;;;;;;3.35;2.83;;;;;;;6.99;80.60;101188.28;1763774;81;21822;-73
2021/11/25 01:30:24;;;;;;;4.25;3.00;;;;;;;6.97;80.60;101184.70;1763648;81;21234;-73
2021/11/25 01:32:51;;;;;;;6.92;3.17;;;;;;;6.94;80.54;101174.96;1763756;81;21152;-73
2021/11/25 01:35:18;;;;;;;4.30;2.92;;;;;;;6.93;80.58;101176.23;1763819;81;21571;-73
2021/11/25 01:37:45;;;;;;;4.55;2.80;;;;;;;6.92;80.60;101173.11;1763825;81;21065;-73
2021/11/25 01:40:14;;;;;;;4.00;3.20;;;;;;;6.93;80.63;101168.38;1763565;81;21875;-73
2021/11/25 01:42:42;;;;;;;3.40;3.02;;;;;;;6.92;80.60;101172.69;1763977;81;21054;-72
2021/11/25 01:45:09;;;;;;;4.17;3.25;;;;;;;6.92;80.54;101173.11;1763711;80;21587;-73
2021/11/25 01:47:36;;;;;;;4.35;3.42;;;;;;;6.92;80.55;101174.42;1763618;81;21053;-73
2021/11/25 01:50:04;;;;;;;3.45;2.92;;;;;;;6.92;80.54;101171.80;1763467;80;21552;-73
2021/11/25 01:52:31;;;;;;;5.85;3.47;;;;;;;6.91;80.46;101172.22;1763739;80;21762;-73
2021/11/25 01:54:57;;;;;;;4.83;3.40;;;;;;;6.90;80.38;101163.88;1763658;80;21100;-73
2021/11/25 01:57:24;;;;;;;3.85;3.22;;;;;;;6.90;80.47;101159.95;1763642;81;21112;-73
2021/11/25 01:59:51;;;;;;;5.12;2.70;;;;;;;6.90;80.29;101156.45;1763766;81;21086;-73
2021/11/25 02:02:18;;;;;;;3.52;2.42;;;;;;;6.88;80.14;101156.79;1763884;80;21077;-73
2021/11/25 02:04:45;;;;;;;3.65;2.50;;;;;;;6.86;80.00;101137.51;1763518;81;21897;-73
2021/11/25 02:07:12;;;;;;;4.33;3.12;;;;;;;6.86;79.97;101150.59;1763819;81;21117;-73
2021/11/25 02:09:38;;;;;;;4.08;3.20;;;;;;;6.88;79.98;101143.70;1763580;80;21069;-73
2021/11/25 02:12:07;;;;;;;5.80;3.15;;;;;;;6.87;79.92;101129.73;1763546;80;21560;-73
2021/11/25 02:14:37;;;;;;;5.00;3.30;;;;;;;6.87;79.98;101128.42;1763232;79;21651;-74
2021/11/25 02:17:06;;;;;;;3.92;3.33;;;;;;;6.88;79.97;101117.11;1762799;80;21714;-73
2021/11/25 02:19:36;;;;;;;3.62;3.10;;;;;;;6.87;79.97;101119.66;1763427;80;21597;-74
2021/11/25 02:22:03;;;;;;;4.33;3.67;;;;;;;6.88;79.98;101125.39;1748294;81;21046;-73
2021/11/25 02:24:31;;;;;;;7.83;4.12;;;;;;;6.88;80.02;101114.92;1763538;81;21079;-73
2021/11/25 02:26:58;;;;;;;6.37;3.75;;;;;;;6.89;80.03;101117.61;1763592;80;21547;-74
2021/11/25 02:29:25;;;;;;;6.28;3.80;;;;;;;6.88;79.97;101110.99;1763545;81;21769;-74
2021/11/25 02:31:52;;;;;;;4.42;3.37;;;;;;;6.88;79.86;101109.69;1763468;80;21497;-75
2021/11/25 02:34:18;;;;;;;4.65;3.40;;;;;;;6.87;79.78;101111.80;1763685;81;21117;-73
2021/11/25 02:36:45;;;;;;;4.72;3.40;;;;;;;6.86;79.77;101106.11;1763675;81;21088;-74
2021/11/25 02:39:12;;;;;;;3.12;2.83;;;;;;;6.88;79.65;101099.22;1763604;80;21012;-74
2021/11/25 02:41:38;;;;;;;3.75;3.00;;;;;;;6.87;79.52;101093.09;1763432;81;21843;-75
2021/11/25 02:44:06;;;;;;;3.83;2.95;;;;;;;6.88;79.43;101093.98;1763690;81;21109;-74
2021/11/25 02:46:32;;;;;;;4.25;3.02;;;;;;;6.88;79.37;101087.45;1763656;81;21073;-74
2021/11/25 02:49:02;;;;;;;4.75;3.15;;;;;;;6.90;79.30;101094.52;1763687;80;21077;-74
2021/11/25 02:51:30;;;;;;;4.17;2.98;;;;;;;6.89;79.18;101090.14;1763360;80;21057;-74
2021/11/25 02:54:00;;;;;;;4.20;3.08;;;;;;;6.88;79.22;101085.71;1763596;80;22619;-74
2021/11/25 02:56:27;;;;;;;4.50;3.33;;;;;;;6.89;79.22;101087.52;1763511;80;21548;-73
2021/11/25 02:58:55;;;;;;;4.10;3.67;;;;;;;6.89;79.24;101088.83;1763505;81;21078;-73
2021/11/25 03:01:29;;;;;;;4.70;3.98;;;;;;;6.89;79.29;101087.52;1763528;79;21444;-73
2021/11/25 03:03:57;;;;;;;7.75;5.50;;;;;;;6.89;79.25;101082.67;1763483;80;21073;-73
2021/11/25 03:06:27;;;;;;;7.42;5.53;;;;;;;6.87;79.23;101079.09;1763592;80;21773;-73
2021/11/25 03:08:54;;;;;;;6.62;4.87;;;;;;;6.84;79.21;101078.55;1763539;80;21547;-72
2021/11/25 03:11:23;;;;;;;9.25;4.50;;;;;;;6.83;79.29;101083.30;1763562;81;21167;-73
2021/11/25 03:13:52;;;;;;;6.30;4.42;;;;;;;6.81;79.27;101079.33;1763696;80;21603;-74
2021/11/25 03:16:19;;;;;;;7.62;4.45;;;;;;;6.81;79.32;101078.02;1763649;81;21065;-73
2021/11/25 03:18:46;;;;;;;5.53;4.60;;;;;;;6.83;79.34;101082.41;1763417;80;21761;-73
2021/11/25 03:21:15;;;;;;;6.33;4.95;;;;;;;6.81;79.34;101075.40;1763482;81;21500;-73
2021/11/25 03:23:43;;;;;;;9.13;4.58;;;;;;;6.82;79.41;101072.36;1763512;81;21164;-73
2021/11/25 03:26:10;;;;;;;5.83;5.22;;;;;;;6.85;79.41;101072.52;1763772;81;21166;-73
2021/11/25 03:28:43;;;;;;;5.33;4.45;;;;;;;6.87;79.45;101068.23;1763776;79;21089;-74
2021/11/25 03:31:05;;;;;;;8.10;5.15;;;;;;;6.89;79.49;101064.36;1763114;80;21810;-73
2021/11/25 03:33:33;;;;;;;8.55;5.90;;;;;;;6.90;79.53;101060.93;1763412;79;21105;-74
2021/11/25 03:36:01;;;;;;;6.45;5.53;;;;;;;6.90;79.48;101058.31;1763631;81;21070;-74
2021/11/25 03:38:27;;;;;;;8.55;5.72;;;;;;;6.88;79.41;101060.85;1763556;81;21095;-74
2021/11/25 03:40:54;;;;;;;6.50;5.30;;;;;;;6.86;79.42;101053.35;1757780;80;21050;-74
2021/11/25 03:43:22;;;;;;;8.00;5.05;;;;;;;6.76;79.40;101040.70;1757732;81;21764;-74
2021/11/25 03:45:48;;;;;;;8.98;5.80;;;;;;;6.86;79.37;101053.77;1757716;81;21067;-74
2021/11/25 03:48:15;;;;;;;7.78;5.87;;;;;;;6.86;79.24;101050.73;1757973;80;21148;-74
2021/11/25 03:50:44;;;;;;;6.15;5.25;;;;;;;6.84;79.22;101044.55;1757872;81;21109;-73
2021/11/25 03:53:12;;;;;;;6.58;5.45;;;;;;;6.85;79.26;101045.42;1757430;81;21038;-74
2021/11/25 03:55:42;;;;;;;6.17;5.30;;;;;;;6.84;79.21;101033.19;1758024;81;22592;-73
2021/11/25 03:58:07;;;;;;;6.35;5.40;;;;;;;6.86;79.23;101034.15;1758057;81;21611;-73
2021/11/25 04:00:34;;;;;;;7.75;5.92;;;;;;;6.85;79.24;101029.73;1758149;81;21219;-73
2021/11/25 04:03:03;;;;;;;7.85;5.72;;;;;;;6.85;79.20;101030.64;1758102;81;21498;-73
2021/11/25 04:05:30;;;;;;;6.55;5.85;;;;;;;6.87;79.21;101028.07;1758118;80;21560;-73
2021/11/25 04:07:59;;;;;;;7.55;5.20;;;;;;;6.88;79.19;101020.30;1738280;81;21098;-73
2021/11/25 04:10:25;;;;;;;6.95;5.30;;;;;;;6.88;79.15;101011.56;1758197;80;21162;-72
2021/11/25 04:12:52;;;;;;;10.40;5.83;;;;;;;6.89;79.12;101014.64;1757967;80;21089;-72
2021/11/25 04:15:20;;;;;;;6.65;5.50;;;;;;;6.88;79.03;101010.25;1757614;81;21061;-73
2021/11/25 04:17:51;;;;;;;7.08;5.55;;;;;;;6.77;79.01;100994.95;1738298;81;21121;-73
2021/11/25 04:20:18;;;;;;;6.75;5.95;;;;;;;6.85;79.16;100995.32;1758132;81;22710;-73
2021/11/25 04:22:45;;;;;;;7.47;5.65;;;;;;;6.88;79.20;101003.28;1758012;81;20987;-73
2021/11/25 04:25:19;;;;;;;10.72;5.67;;;;;;;6.89;79.19;100995.02;1758098;81;21058;-73
2021/11/25 04:27:43;;;;;;;6.80;5.08;;;;;;;6.89;79.19;100992.01;1757773;81;21089;-73
2021/11/25 04:30:13;;;;;;;7.78;5.75;;;;;;;6.91;79.16;100988.16;1739167;81;21352;-74
2021/11/25 04:35:28;;;;;;;7.67;5.42;;;;;;;6.94;79.21;100976.06;1758107;81;21051;-73
2021/11/25 04:37:58;;;;;;;7.03;4.80;;;;;;;6.93;79.12;100976.03;1758055;81;21117;-74
2021/11/25 04:40:25;;;;;;;6.22;5.37;;;;;;;6.91;79.16;100973.34;1761091;81;21085;-73
2021/11/25 04:42:52;;;;;;;7.03;5.20;;;;;;;6.91;79.20;100975.07;1763414;80;21073;-74
2021/11/25 04:45:19;;;;;;;6.47;5.05;;;;;;;6.90;79.27;100968.03;1763817;81;22697;-73
2021/11/25 04:47:46;;;;;;;6.40;5.35;;;;;;;6.88;79.25;100961.84;1763753;81;21084;-73
2021/11/25 04:50:13;;;;;;;6.53;5.22;;;;;;;6.86;79.36;100963.08;1763965;80;21007;-73
2021/11/25 04:52:39;;;;;;;8.55;6.03;;;;;;;6.86;79.35;100949.11;1763858;80;21655;-75
2021/11/25 04:55:09;;;;;;;7.67;5.75;;;;;;;6.86;79.45;100955.66;1763823;81;21061;-74
2021/11/25 04:57:39;;;;;;;7.33;5.87;;;;;;;6.83;79.44;100943.31;1772876;79;21695;-76
2021/11/25 05:00:08;;;;;;;9.10;5.90;;;;;;;6.84;79.50;100937.69;1793390;79;21051;-76
2021/11/25 05:02:34;;;;;;;6.62;5.87;;;;;;;6.83;79.49;100934.16;1795430;78;21010;-75
2021/11/25 05:05:01;;;;;;;6.80;6.10;;;;;;;6.80;79.45;100928.81;1794832;79;21053;-76
2021/11/25 05:07:34;;;;;;;10.00;6.10;;;;;;;6.78;79.47;100927.42;1792138;79;21050;-75
2021/11/25 05:09:59;;;;;;;7.87;6.67;;;;;;;6.77;79.48;100922.13;1794244;79;21808;-75
2021/11/25 05:12:29;;;;;;;9.03;5.80;;;;;;;6.74;79.50;100916.78;1796624;79;21706;-75
2021/11/25 05:14:55;;;;;;;8.50;6.12;;;;;;;6.73;79.52;100913.25;1808442;77;21132;-83
2021/11/25 05:17:23;;;;;;;8.93;6.22;;;;;;;6.72;79.51;100918.41;1808663;77;21057;-81
2021/11/25 05:19:50;;;;;;;7.30;6.45;;;;;;;6.70;79.53;100918.37;1808416;77;21654;-79
2021/11/25 05:22:19;;;;;;;6.45;5.85;;;;;;;6.72;79.57;100910.56;1808453;79;21794;-84
2021/11/25 05:24:46;;;;;;;7.37;6.20;;;;;;;6.74;79.60;100908.94;1808842;77;21034;-83
2021/11/25 05:27:15;;;;;;;10.35;6.83;;;;;;;6.72;79.54;100904.94;1808912;77;21606;-81
2021/11/25 05:29:41;;;;;;;7.33;6.53;;;;;;;6.71;79.35;100904.44;1808736;77;21033;-81
2021/11/25 05:32:11;;;;;;;9.15;7.10;;;;;;;6.64;79.26;100889.73;1809080;78;21140;-82
2021/11/25 05:34:37;;;;;;;7.55;6.30;;;;;;;6.58;79.25;100884.70;1808577;78;22562;-81
2021/11/25 05:37:04;;;;;;;9.35;7.87;;;;;;;6.69;79.43;100896.95;1808495;78;21034;-81
2021/11/25 05:39:31;;;;;;;10.53;7.45;;;;;;;6.70;79.39;100890.91;1807985;78;21105;-80
2021/11/25 05:41:57;;;;;;;9.90;8.13;;;;;;;6.70;79.41;100884.75;1805096;78;21587;-81
2021/11/25 05:44:26;;;;;;;10.65;8.55;;;;;;;6.71;79.41;100882.20;1805042;78;21559;-81
2021/11/25 05:46:56;;;;;;;12.23;9.55;;;;;;;6.73;79.45;100884.47;1805161;78;21773;-80
2021/11/25 05:49:30;;;;;;;11.40;9.20;;;;;;;6.72;79.41;100881.39;1805019;78;21054;-80
2021/11/25 05:51:56;;;;;;;13.45;10.30;;;;;;;6.70;79.39;100875.59;1805383;78;21639;-81
2021/11/25 05:54:23;;;;;;;13.72;10.48;;;;;;;6.62;79.40;100859.58;1805326;78;21065;-83
2021/11/25 05:56:49;;;;;;;14.75;10.55;;;;;;;6.73;79.38;100871.81;1805361;78;21101;-81
2021/11/25 05:59:16;;;;;;;15.03;10.35;;;;;;;6.72;79.39;100866.09;1805458;78;21728;-81
2021/11/25 06:01:43;;;;;;;15.32;10.68;;;;;;;6.71;79.31;100866.94;1805235;79;21649;-81
2021/11/25 06:04:12;;;;;;;14.23;11.65;;;;;;;6.70;79.31;100864.73;1805019;78;21068;-81
2021/11/25 06:06:42;;;;;;;15.90;10.80;;;;;;;6.71;79.32;100852.55;1805567;77;21006;-81
2021/11/25 06:09:12;;;;;;;16.32;11.63;;;;;;;6.65;79.30;100845.75;1805585;79;21049;-81
2021/11/25 06:11:40;;;;;;;13.15;11.03;;;;;;;6.70;79.17;100857.28;1804732;78;22633;-80
2021/11/25 06:14:08;;;;;;;14.40;10.85;;;;;;;6.67;79.08;100861.98;1805741;78;21635;-80
2021/11/25 06:16:38;;;;;;;14.25;10.88;;;;;;;6.63;79.04;100847.42;1805881;78;21832;-80
2021/11/25 06:19:04;;;;;;;14.93;10.82;;;;;;;6.60;78.94;100850.77;1805520;78;21762;-81
2021/11/25 06:21:34;;;;;;;14.70;11.05;;;;;;;6.59;78.92;100852.93;1805651;78;21057;-81
2021/11/25 06:24:02;;;;;;;14.47;10.65;;;;;;;6.59;78.98;100848.58;1780388;79;21045;-81
2021/11/25 06:26:29;;;;;;;19.32;12.00;;;;;;;6.59;78.84;100847.28;1805438;79;21057;-81
2021/11/25 06:28:55;;;;;;;15.30;11.12;;;;;;;6.59;78.85;100849.00;1806163;78;21045;-81
2021/11/25 06:31:22;;;;;;;15.75;11.70;;;;;;;6.59;78.84;100840.73;1806007;78;21032;-80
2021/11/25 06:33:49;;;;;;;14.50;11.75;;;;;;;6.55;78.77;100844.45;1805969;79;21029;-81
2021/11/25 06:36:16;;;;;;;16.77;12.30;;;;;;;6.53;78.68;100843.48;1806187;78;21683;-80
2021/11/25 06:38:42;;;;;;;12.23;10.82;;;;;;;6.51;78.53;100841.23;1805923;78;21631;-81
2021/11/25 06:41:13;;;;;;;14.60;11.68;;;;;;;6.48;78.49;100846.34;1805771;78;21085;-80
2021/11/25 06:43:37;;;;;;;17.07;13.05;;;;;;;6.48;78.46;100846.34;1804915;78;21689;-81
2021/11/25 06:46:06;;;;;;;14.98;12.47;;;;;;;6.44;78.42;100842.70;1805755;79;21634;-81
2021/11/25 06:48:33;;;;;;;14.83;12.10;;;;;;;6.41;78.39;100844.75;1806320;78;21749;-81
2021/11/25 06:50:59;;;;;;;18.95;13.25;;;;;;;6.37;78.31;100844.56;1806113;78;21026;-81
2021/11/25 06:53:26;;;;;;;18.75;13.10;;;;;;;6.37;78.30;100844.14;1805978;78;21025;-81
2021/11/25 06:55:52;;;;;;;15.45;12.50;;;;;;;6.36;78.24;100841.06;1806100;78;21118;-81
2021/11/25 06:58:19;;;;;;;16.17;12.93;;;;;;;6.34;78.22;100830.05;1806130;78;21049;-81
2021/11/25 07:00:46;;;;;;;18.30;13.22;;;;;;;6.33;78.18;100827.85;1805914;78;22504;-81
2021/11/25 07:03:13;;;;;;;20.08;12.60;;;;;;;6.34;78.28;100829.63;1805872;79;21037;-81
2021/11/25 07:05:40;;;;;;;17.52;12.85;;;;;;;6.36;78.31;100825.38;1805924;79;21061;-80
2021/11/25 07:08:07;;;;;;;15.05;11.88;;;;;;;6.38;78.25;100826.73;1781058;78;21406;-81
2021/11/25 07:10:34;;;;;;;14.98;11.18;;;;;;;6.39;78.20;100824.61;1805911;78;21613;-81
2021/11/25 07:13:01;;;;;;;16.70;11.85;;;;;;;6.36;78.00;100820.16;1806052;78;21782;-80
2021/11/25 07:15:28;;;;;;;14.80;11.97;;;;;;;6.34;77.94;100815.66;1805942;78;21089;-80
2021/11/25 07:17:55;;;;;;;17.23;12.30;;;;;;;6.34;77.95;100810.44;1805907;79;21081;-80
2021/11/25 07:20:22;;;;;;;17.23;12.13;;;;;;;6.36;77.93;100803.55;1806128;78;21034;-81
2021/11/25 07:22:48;;;;;;;13.90;11.00;;;;;;;6.34;77.74;100798.25;1806120;79;21057;-81
2021/11/25 07:25:16;;;;;;;19.05;12.55;;;;;;;6.32;77.67;100795.98;1805895;79;22682;-81
2021/11/25 07:27:43;;;;;;;16.57;12.65;;;;;;;6.32;77.64;100803.83;1805876;79;21058;-81
2021/11/25 07:30:12;;;;;;;15.72;12.03;;;;;;;6.30;77.57;100791.53;1805914;79;21049;-80
2021/11/25 07:32:38;;;;;;;15.90;12.88;;;;;;;6.30;77.46;100791.53;1806037;79;21212;-81
2021/11/25 07:35:06;;;;;;;16.50;12.85;;;;;;;6.29;77.33;100795.88;1805607;78;21097;-80
2021/11/25 07:37:33;;;;;;;17.90;13.48;;;;;;;6.27;77.12;100792.30;1805974;79;21757;-80
2021/11/25 07:40:00;;;;;;;37.85;22.42;;;;;;;6.23;76.96;100784.74;1805931;78;21025;-80
2021/11/25 07:42:26;;;;;;;22.87;14.78;;;;;;;6.27;76.91;100779.63;1808106;78;21080;-81
2021/11/25 07:44:55;;;;;;;20.15;14.23;;;;;;;6.26;76.73;100777.44;1807759;78;21567;-81
2021/11/25 07:47:30;;;;;;;19.62;14.00;;;;;;;6.26;76.59;100772.20;1808263;77;21046;-81
2021/11/25 07:49:50;;;;;;;22.07;15.20;;;;;;;6.27;76.59;100770.48;1806530;79;21794;-81
2021/11/25 07:52:18;;;;;;;16.90;12.35;;;;;;;6.26;76.60;100770.02;1808439;77;21210;-81
2021/11/25 07:54:45;;;;;;;20.40;14.33;;;;;;;6.28;76.54;100777.08;1808000;79;21057;-81
2021/11/25 07:57:13;;;;;;;22.55;15.50;;;;;;;6.28;76.57;100773.58;1777749;79;21057;-81
2021/11/25 07:59:40;;;;;;;18.80;14.50;;;;;;;6.27;76.54;100768.78;1808065;79;21061;-81
2021/11/25 08:02:06;;;;;;;23.90;14.25;;;;;;;6.24;76.48;100776.48;1808241;79;22579;-81
2021/11/25 08:04:33;;;;;;;20.15;13.43;;;;;;;6.23;76.54;100772.98;1808121;77;21089;-81
2021/11/25 08:07:00;;;;;;;19.30;14.47;;;;;;;6.27;76.62;100771.78;1808302;79;21120;-81
2021/11/25 08:09:26;;;;;;;18.85;14.03;;;;;;;6.25;76.53;100773.05;1808161;77;21057;-80
2021/11/25 08:11:53;;;;;;;17.32;13.13;;;;;;;6.23;76.57;100767.75;1808096;79;21046;-81
2021/11/25 08:14:22;;;;;;;18.55;14.30;;;;;;;6.26;76.54;100768.70;1808232;78;21757;-81
2021/11/25 08:16:48;;;;;;;21.00;14.68;;;;;;;6.26;76.48;100773.52;1808073;78;21065;-81
2021/11/25 08:19:15;;;;;;;20.37;15.38;;;;;;;6.27;76.49;100776.63;1808236;78;21629;-81
2021/11/25 08:21:41;;;;;;;21.12;15.30;;;;;;;6.29;76.50;100774.05;1808393;78;21097;-81
2021/11/25 08:24:08;;;;;;;20.15;14.60;;;;;;;6.31;76.52;100769.80;1808580;77;21090;-81
2021/11/25 08:26:37;;;;;;;25.75;17.40;;;;;;;6.32;76.48;100765.03;1808487;78;21755;-81
2021/11/25 08:29:03;;;;;;;32.53;20.50;;;;;;;6.34;76.53;100762.07;1808168;77;21056;-81
2021/11/25 08:31:30;;;;;;;49.53;29.75;;;;;;;6.34;76.46;100759.45;1808135;78;21057;-81
2021/11/25 08:33:56;;;;;;;28.35;18.25;;;;;;;6.31;76.39;100755.42;1808206;79;21544;-81
2021/11/25 08:36:23;;;;;;;21.48;15.18;;;;;;;6.27;76.35;100746.95;1808364;78;21045;-81
2021/11/25 08:38:50;;;;;;;27.00;19.55;;;;;;;6.26;76.38;100749.11;1808391;79;21961;-81
2021/11/25 08:41:16;;;;;;;23.87;16.82;;;;;;;6.25;76.40;100746.00;1810946;79;21030;-80
2021/11/25 08:43:43;;;;;;;24.55;18.42;;;;;;;6.26;76.38;100737.34;1814031;79;21030;-81
2021/11/25 08:46:10;;;;;;;30.77;19.90;;;;;;;6.25;76.35;100732.53;1814394;77;21065;-80
2021/11/25 08:48:36;;;;;;;20.37;14.93;;;;;;;6.24;76.32;100730.73;1814478;77;21048;-81
2021/11/25 08:51:03;;;;;;;24.27;16.48;;;;;;;6.25;76.37;100725.08;1814460;78;21900;-81
2021/11/25 08:53:31;;;;;;;25.27;18.45;;;;;;;6.26;76.38;100721.23;1814318;77;21033;-81
2021/11/25 08:55:57;;;;;;;23.95;18.00;;;;;;;6.27;76.34;100721.73;1813825;79;21073;-81
2021/11/25 08:58:24;;;;;;;24.85;15.72;;;;;;;6.27;76.33;100716.50;1814073;78;21101;-80
2021/11/25 09:00:54;;;;;;;19.48;15.30;;;;;;;6.29;76.22;100719.15;1813652;77;21530;-81
2021/11/25 09:03:19;;;;;;;18.75;14.60;;;;;;;6.28;76.17;100718.27;1813758;77;21837;-81
2021/11/25 09:05:46;;;;;;;19.90;14.73;;;;;;;6.32;76.17;100712.33;1814457;78;21084;-81
2021/11/25 09:08:12;;;;;;;21.10;15.80;;;;;;;6.30;76.07;100715.30;1814445;79;21096;-81
2021/11/25 09:10:39;;;;;;;18.95;14.38;;;;;;;6.31;76.05;100705.33;1814409;78;21112;-81
2021/11/25 09:13:06;;;;;;;18.98;14.20;;;;;;;6.29;75.94;100699.16;1814542;78;21570;-81
2021/11/25 09:15:33;;;;;;;23.77;16.27;;;;;;;6.29;75.83;100695.23;1814321;79;22411;-80
2021/11/25 09:18:03;;;;;;;24.43;19.07;;;;;;;6.29;75.67;100681.25;1814324;78;21585;-80
2021/11/25 09:20:31;;;;;;;21.33;17.45;;;;;;;6.28;75.42;100681.67;1814481;78;20994;-81
2021/11/25 09:23:01;;;;;;;18.90;15.28;;;;;;;6.29;75.16;100675.62;1814184;78;21630;-81
2021/11/25 09:25:28;;;;;;;16.75;14.13;;;;;;;6.29;74.90;100671.70;1814298;77;21061;-80
2021/11/25 09:27:55;;;;;;;18.65;15.10;;;;;;;6.25;74.79;100665.88;1814263;79;21733;-81
2021/11/25 09:30:21;;;;;;;19.42;14.60;;;;;;;6.23;74.69;100661.89;1814310;78;21054;-80
2021/11/25 09:32:48;;;;;;;19.20;15.60;;;;;;;6.22;74.69;100657.48;1814188;78;21092;-80
2021/11/25 09:35:15;;;;;;;20.52;15.53;;;;;;;6.22;74.63;100650.06;1814253;79;21598;-80
2021/11/25 09:37:42;;;;;;;19.30;15.60;;;;;;;6.21;74.70;100646.56;1814484;77;21048;-81
2021/11/25 09:40:21;;;;;;;21.73;16.65;;;;;;;6.21;74.70;100637.42;1813960;77;23128;-81
2021/11/25 09:42:39;;;;;;;21.90;17.85;;;;;;;6.20;74.61;100635.62;1804613;77;21683;-80
2021/11/25 09:45:08;;;;;;;25.88;17.90;;;;;;;6.19;74.49;100630.33;1806214;79;22532;-81
2021/11/25 09:47:34;;;;;;;23.55;17.82;;;;;;;6.18;74.43;100631.17;1806500;79;21041;-81
2021/11/25 09:50:03;;;;;;;24.77;20.02;;;;;;;6.20;74.17;100623.86;1806208;78;21072;-81
2021/11/25 09:52:30;;;;;;;25.70;20.40;;;;;;;6.19;73.82;100622.48;1806285;78;21756;-80
2021/11/25 09:54:58;;;;;;;33.15;20.97;;;;;;;6.16;73.71;100614.11;1781093;79;21170;-80
2021/11/25 09:57:25;;;;;;;24.47;20.27;;;;;;;6.15;73.50;100607.52;1806440;78;21135;-81
2021/11/25 09:59:51;;;;;;;27.10;20.85;;;;;;;6.10;73.40;100605.12;1806312;78;21017;-80
2021/11/25 10:02:18;;;;;;;25.62;19.80;;;;;;;6.07;73.37;100607.20;1806248;79;21514;-80
2021/11/25 10:04:45;;;;;;;25.65;20.92;;;;;;;6.04;73.30;100604.45;1805654;79;22644;-81
2021/11/25 10:07:11;;;;;;;29.23;21.52;;;;;;;6.03;73.35;100597.46;1805844;78;21300;-81
2021/11/25 10:09:40;;;;;;;28.57;20.92;;;;;;;6.03;73.35;100588.31;1781382;78;21578;-80
2021/11/25 10:12:40;;;;;;;27.75;20.55;;;;;;;6.01;73.19;100593.47;1806190;78;21140;-80
2021/11/25 10:15:35;;;;;;;29.15;21.77;;;;;;;6.02;73.20;100586.52;1804011;79;21096;-80
2021/11/25 10:18:11;;;;;;;31.33;21.52;;;;;;;6.02;73.17;100576.98;1805990;79;21747;-80
2021/11/25 10:20:40;;;;;;;35.10;24.18;;;;;;;5.99;73.04;100576.84;1805463;79;21104;-80
2021/11/25 10:23:15;;;;;;;40.12;28.65;;;;;;;5.99;72.89;100570.74;1781481;79;21037;-80
2021/11/25 10:26:07;;;;;;;54.05;36.15;;;;;;;5.99;72.78;100566.82;1805634;79;21105;-81
2021/11/25 10:28:47;;;;;;;36.03;25.40;;;;;;;5.96;72.58;100562.34;1806202;79;21037;-81
2021/11/25 10:31:21;;;;;;;33.42;23.67;;;;;;;5.96;72.44;100561.46;1805906;79;21761;-82
2021/11/25 10:34:13;;;;;;;31.73;23.27;;;;;;;5.97;72.43;100562.84;1805016;78;21618;-81
2021/11/25 10:42:16;;;;;;;28.60;20.43;;;;;;;6.05;72.11;100547.89;1805696;78;21025;-81
2021/11/25 10:44:50;;;;;;;31.62;20.52;;;;;;;6.06;72.08;100543.12;1805953;79;21956;-81
2021/11/25 10:47:21;;;;;;;;;;;;;;;6.07;71.96;100534.47;1808572;79;21053;-82
2021/11/25 10:49:58;;;;;;;23.98;18.23;;;;;;;6.05;71.79;100529.17;1805958;79;20205;-82
2021/11/25 10:52:44;;;;;;;23.02;18.40;;;;;;;6.07;71.77;100526.20;1805643;78;21061;-81
2021/11/25 10:55:15;;;;;;;23.25;17.30;;;;;;;6.06;71.81;100520.91;1781372;79;21127;-82
2021/11/25 10:57:48;;;;;;;22.48;17.20;;;;;;;6.07;71.71;100514.44;1805348;79;21769;-81
2021/11/25 11:00:32;;;;;;;23.87;17.85;;;;;;;6.04;71.64;100511.70;1806061;78;21017;-82
2021/11/25 11:03:25;;;;;;;21.77;17.40;;;;;;;6.06;71.75;100502.62;1806121;78;21100;-82
2021/11/25 11:06:02;;;;;;;24.40;17.82;;;;;;;6.08;71.75;100499.64;1805865;78;21105;-82
2021/11/25 11:08:41;;;;;;;21.65;17.73;;;;;;;6.11;71.70;100494.13;1806064;78;21076;-81
2021/11/25 11:11:10;;;;;;;22.02;17.55;;;;;;;6.12;71.71;100487.17;1806184;78;22462;-81
2021/11/25 11:13:49;;;;;;;25.08;18.82;;;;;;;6.12;71.70;100484.55;1805932;78;21527;-81
2021/11/25 11:16:25;;;;;;;26.00;20.48;;;;;;;6.11;71.76;100484.98;1805024;78;21057;-81
2021/11/25 11:19:03;;;;;;;27.93;21.23;;;;;;;6.11;71.75;100486.71;1803659;79;21297;-81
2021/11/25 11:21:52;;;;;;;26.00;19.55;;;;;;;6.09;71.68;100478.80;1804484;79;21125;-81
2021/11/25 11:24:23;;;;;;;28.15;20.65;;;;;;;6.07;71.64;100469.14;1805859;78;21943;-81
2021/11/25 11:26:54;;;;;;;30.62;19.45;;;;;;;6.07;71.66;100464.80;1804857;79;21116;-81
2021/11/25 11:29:29;;;;;;;23.83;18.30;;;;;;;6.05;71.65;100465.16;1805699;78;21053;-81
2021/11/25 11:31:59;;;;;;;26.77;19.98;;;;;;;6.06;71.71;100458.20;1805992;78;21074;-81
2021/11/25 11:34:26;;;;;;;26.95;18.42;;;;;;;6.07;71.68;100453.46;1806326;79;21139;-81
2021/11/25 11:36:54;;;;;;;27.55;19.27;;;;;;;6.05;71.61;100444.67;1806010;78;23240;-81
2021/11/25 11:39:24;;;;;;;24.43;17.90;;;;;;;6.06;71.62;100439.48;1805899;79;21363;-81